• Join FlightAware (Why Join?)
  • Login
  • US Flag 
06:27PM EDT


 

Airport Tracker/Info


-or-


 

Live Flight TrackerFlight Track Log ✈ N848TC ✈ 28-Jun-2014 ✈ KMDQ - KPDK

Flight Track Log - Related Links

Times and Time Zones

All times are in EDT time to prevent confusion due to time zone crossing. See the N848TC flight status page for this flight to view local times or setup timezone preferences in your user account.

Time Position Orientation Groundspeed Altitude Reporting Facility
EDT Latitude Longitude Course Direction KTS MPH feet Rate Location/Type
01:36PM 34.8244 -86.3914 109° East 271 312 5,500  Level Memphis Center
01:37PM 34.8169 -86.3114 96° East 253 291 8,500 2,820 Climbing Memphis Center
01:38PM 34.7817 -86.2322 118° Southeast 259 298 11,400 2,100 Climbing Memphis Center
01:39PM 34.7497 -86.1453 114° Southeast 273 314 12,900 720 Climbing Memphis Center
01:40PM 34.6477 -86.0420 109° East  Level FlightAware Approximate
01:40PM 34.7039 -86.0372 117° Southeast 320 368 13,000  Level Memphis Center
01:41PM 34.6222 -85.9526 109° East  Level FlightAware Approximate
01:41PM 34.6319 -85.9042 123° Southeast 371 427 13,100  Level Memphis Center
01:42PM 34.5950 -85.8431 126° Southeast 376 433 13,000  Descending Atlanta Center
01:43PM 34.5361 -85.7308 122° Southeast 386 444 13,100  Climbing Atlanta Center
01:44PM 34.4811 -85.6189 121° Southeast 386 444 13,000  Descending Atlanta Center
01:45PM 34.4306 -85.5019 118° Southeast 391 450 13,100  Climbing Atlanta Center
01:46PM 34.3817 -85.3906 118° Southeast 385 443 13,000 -600 Descending Atlanta Center
01:47PM 34.3328 -85.2739 117° Southeast 380 437 12,000 -1,080 Descending Atlanta Center
01:48PM 34.2942 -85.1578 112° Southeast 373 429 10,900 -1,020 Descending Atlanta Center
01:49PM 34.2639 -85.0617 111° Southeast 342 394 10,000 -900 Descending Atlanta Center
01:50PM 34.2333 -84.9733 113° Southeast 304 350 9,100 -960 Descending Atlanta Center
01:51PM 34.2025 -84.8803 112° Southeast 294 338 8,100 -600 Descending Atlanta Center
01:52PM 34.1383 -84.8142 140° Southeast 294 338 8,000 -900 Descending Atlanta Center
01:53PM 34.0908 -84.7386 127° Southeast 294 338 6,400 -1,740 Descending Atlanta Center
01:54PM 34.0472 -84.6606 124° Southeast 288 331 4,600 -1,200 Descending Atlanta Center
01:55PM 34.0039 -84.5900 127° Southeast 275 316 4,100 -600 Descending Atlanta Center
01:56PM 33.9539 -84.5247 133° Southeast 270 311 3,500 -720 Descending Atlanta Center
01:57PM 33.9022 -84.4442 128° Southeast 270 311 2,700 -600 Descending Atlanta Center
01:58PM 33.8667 -84.3667 119° Southeast 213 245 2,300 -600 Descending Atlanta TRACON
01:59PM 33.8500 -84.3167 112° Southeast 158 182 1,500 -600 Descending Atlanta TRACON
02:00PM 33.8833 -84.3000 23° Northeast 188 216 1,200 -360 Descending Atlanta TRACON
02:02PM 33.8756 -84.3020 180° South  Level Estimated
02:09PM 33.8756 -84.3020 180° South  Level Estimated
02:10PM 33.8756 -84.3020 180° South  Level Estimated